»·PEaware :: AAL475 KPHX-KSAN

AAL475 :: KPHX-KSAN

FLIGHT INFORMATION

Flight Status: Arrived
Operator:
American Airlines
More flights by this operator :: More flights under this callsign
Pilot: John C. (18682)
Aircraft: AIRBUS A320
(A320)
More flights by this aircraft type
Origin: KPHX Phoenix Sky Harbor Intl
United States
Destination: KSAN San Diego Intl-Lindbergh
United States
More flights between these airports :: More routes between these airports
Route: +FYRBD1 MOHAK J2 HOGGZ LUCKI1
File this flight plan on PilotEdge
Remarks:
Altitude:
(Current/Filed)
28,000ft
Speed:
(Current/Filed)
472kts
Departed: 19-Oct-20 05:06 PM
Arrived: 19-Oct-20 05:57 PM
Distance/Time
Traveled:
264nm/0:51
Distance/Time
To Go:
Arrived

Flight Plot

Page will automatically refresh every two minutes.

Flight plan parsing failed; only flown route is shown


Map Options




Map Legend


Flown Route
Filed Route
Departure Airport
Arrival Airport
Navaid (VOR, NDB)
Fix

Horizontal Profiles

Position Reports

Time Latitude Longitude Heading Altitude Ground
Speed
19-Oct-20 16:45 33.437575 -111.998807 270 1132ft 0kts
19-Oct-20 16:46 33.437575 -111.998807 270 1132ft 0kts
19-Oct-20 16:47 33.437575 -111.998807 270 1132ft 0kts
19-Oct-20 16:48 33.437575 -111.998807 270 1132ft 0kts
19-Oct-20 16:49 33.437575 -111.998807 270 1132ft 0kts
19-Oct-20 16:50 33.437575 -111.998807 270 1132ft 0kts
19-Oct-20 16:51 33.437575 -111.998807 270 1132ft 0kts
19-Oct-20 16:52 33.437575 -111.998807 270 1132ft 0kts
19-Oct-20 16:53 33.437575 -111.998807 270 1132ft 0kts
19-Oct-20 16:54 33.437575 -111.998807 270 1132ft 0kts
19-Oct-20 16:55 33.437575 -111.998807 270 1132ft 0kts
19-Oct-20 16:56 33.437576 -111.998521 269 1133ft 2kts
19-Oct-20 16:57 33.437305 -111.998262 0 1133ft 0kts
19-Oct-20 16:58 33.437305 -111.998262 0 1133ft 0kts
19-Oct-20 16:59 33.437871 -111.998267 359 1134ft 6kts
19-Oct-20 17:00 33.439735 -111.999606 271 1135ft 12kts
19-Oct-20 17:01 33.439750 -112.006219 270 1131ft 22kts
19-Oct-20 17:02 33.439753 -112.013957 270 1127ft 23kts
19-Oct-20 17:03 33.439759 -112.022376 270 1120ft 24kts
19-Oct-20 17:04 33.439889 -112.029465 308 1115ft 9kts
19-Oct-20 17:05 33.440854 -112.023011 90 1119ft 98kts
19-Oct-20 17:06 33.440067 -111.967770 93 2939ft 183kts
19-Oct-20 17:07 33.436001 -111.891746 93 5169ft 258kts
19-Oct-20 17:09 33.383654 -111.846637 199 7917ft 262kts
19-Oct-20 17:10 33.355268 -111.914514 278 9085ft 256kts
19-Oct-20 17:11 33.361022 -112.008800 260 10930ft 327kts
19-Oct-20 17:12 33.306126 -112.109571 235 12433ft 385kts
19-Oct-20 17:13 33.241379 -112.214234 235 14837ft 396kts
19-Oct-20 17:14 33.175042 -112.321723 236 17043ft 407kts
19-Oct-20 17:15 33.107051 -112.431632 236 19088ft 416kts
19-Oct-20 17:16 33.037489 -112.543830 236 21078ft 422kts
19-Oct-20 17:17 32.967783 -112.657942 242 22904ft 426kts
19-Oct-20 17:18 32.940337 -112.794623 262 24480ft 428kts
19-Oct-20 17:19 32.921203 -112.935893 262 25976ft 434kts
19-Oct-20 17:20 32.901676 -113.078839 263 27358ft 440kts
19-Oct-20 17:21 32.881841 -113.222810 263 27941ft 442kts
19-Oct-20 17:22 32.861684 -113.367882 263 27943ft 444kts
19-Oct-20 17:23 32.841320 -113.513145 263 27943ft 443kts
19-Oct-20 17:23 32.824276 -113.633788 263 27932ft 443kts
19-Oct-20 17:25 32.800181 -113.802988 262 27926ft 444kts
19-Oct-20 17:25 32.782859 -113.923621 262 27932ft 445kts
19-Oct-20 17:27 32.775888 -114.093898 274 27936ft 441kts
19-Oct-20 17:28 32.781743 -114.239619 274 27927ft 440kts
19-Oct-20 17:28 32.786639 -114.361161 276 27921ft 440kts
19-Oct-20 17:30 32.825417 -114.523936 289 27933ft 438kts
19-Oct-20 17:30 32.856828 -114.638470 289 27918ft 437kts
19-Oct-20 17:31 32.878298 -114.780858 270 27920ft 442kts
19-Oct-20 17:32 32.874918 -114.927030 270 27923ft 441kts
19-Oct-20 17:33 32.871523 -115.072815 270 27914ft 440kts
19-Oct-20 17:34 32.867972 -115.218457 270 27916ft 440kts
19-Oct-20 17:35 32.862170 -115.359946 263 27296ft 410kts
19-Oct-20 17:36 32.843782 -115.490820 262 25409ft 392kts
19-Oct-20 17:37 32.823468 -115.615297 261 23480ft 376kts
19-Oct-20 17:38 32.803861 -115.734758 261 21582ft 363kts
19-Oct-20 17:39 32.785287 -115.850446 264 19725ft 349kts
19-Oct-20 17:40 32.776585 -115.963416 267 17902ft 337kts
19-Oct-20 17:41 32.768330 -116.072986 267 16114ft 329kts
19-Oct-20 17:42 32.760180 -116.180040 267 14359ft 321kts
19-Oct-20 17:43 32.752175 -116.283861 267 13031ft 305kts
19-Oct-20 17:44 32.744555 -116.382093 267 11615ft 292kts
19-Oct-20 17:45 32.737183 -116.476333 267 10450ft 276kts
19-Oct-20 17:46 32.729268 -116.563850 265 9397ft 261kts
19-Oct-20 17:47 32.720997 -116.648798 265 8147ft 255kts
19-Oct-20 17:48 32.714199 -116.732317 266 6925ft 254kts
19-Oct-20 17:49 32.707533 -116.814830 261 6029ft 239kts
19-Oct-20 17:50 32.685935 -116.887119 252 5219ft 228kts
19-Oct-20 17:51 32.676303 -116.954695 287 4753ft 191kts
19-Oct-20 17:52 32.691073 -117.014781 286 3275ft 183kts
19-Oct-20 17:53 32.704748 -117.070906 286 2214ft 161kts
19-Oct-20 17:54 32.715757 -117.116234 286 1336ft 129kts
19-Oct-20 17:55 32.725673 -117.157067 286 509ft 128kts
19-Oct-20 17:56 32.734022 -117.191542 286 22ft 39kts
19-Oct-20 17:57 32.734303 -117.197036 286 19ft 13kts
19-Oct-20 17:58 32.735019 -117.202401 200 19ft 13kts
19-Oct-20 17:59 32.733770 -117.202129 153 19ft 0kts
19-Oct-20 18:00 32.733770 -117.202129 153 19ft 0kts

Navigation Log

Ident Type
Flight plan parsing failed, navigation log unavailable